VTK601 UHHH-UHMM
Flight info
| Callsign | VTK601 |
|---|---|
| Flight time | N/A |
| Altitude | 35000 |
| Route | TOMSU2U TOMSU N222 NA/K0852F370 L160 BANOT BANOT5J |
| Aircraft | B739/M-SDE2E3FGHIRWXY/LB1 |
Departure
| Time | 2026-05-08 05:28 |
|---|---|
| Airport | Khabarovsk Novy Airport (UHHH) |
Arrival
| Time | N/A |
|---|---|
| Airport | Sokol Airport (UHMM) |
| Time | Latitude | Longitude | Altitude | Speed | Heading |
|---|---|---|---|---|---|
| 2026-05-08 05:14 | 48.52545 | 135.17546 | 244 ft | 0 kts | 312° |
| 2026-05-08 05:23 | 48.52556 | 135.17527 | 244 ft | 6 kts | 309° |
| 2026-05-08 05:24 | 48.52567 | 135.17463 | 244 ft | 7 kts | 259° |
| 2026-05-08 05:24 | 48.52537 | 135.17416 | 244 ft | 7 kts | 195° |
| 2026-05-08 05:24 | 48.52490 | 135.17453 | 244 ft | 10 kts | 135° |
| 2026-05-08 05:24 | 48.52427 | 135.17556 | 245 ft | 15 kts | 133° |
| 2026-05-08 05:25 | 48.52349 | 135.17682 | 245 ft | 17 kts | 132° |
| 2026-05-08 05:25 | 48.52252 | 135.17774 | 246 ft | 17 kts | 188° |
| 2026-05-08 05:25 | 48.52156 | 135.17675 | 249 ft | 17 kts | 223° |
| 2026-05-08 05:25 | 48.52074 | 135.17555 | 250 ft | 17 kts | 223° |
| 2026-05-08 05:26 | 48.51977 | 135.17431 | 247 ft | 21 kts | 221° |
| 2026-05-08 05:26 | 48.51855 | 135.17269 | 241 ft | 25 kts | 222° |
| 2026-05-08 05:26 | 48.51729 | 135.17094 | 237 ft | 15 kts | 223° |
| 2026-05-08 05:26 | 48.51675 | 135.16975 | 235 ft | 10 kts | 231° |
| 2026-05-08 05:27 | 48.51658 | 135.17007 | 239 ft | 6 kts | 34° |
| 2026-05-08 05:27 | 48.51691 | 135.17046 | 239 ft | 6 kts | 41° |
| 2026-05-08 05:27 | 48.51861 | 135.17276 | 242 ft | 67 kts | 42° |
| 2026-05-08 05:27 | 48.52371 | 135.17973 | 242 ft | 129 kts | 42° |
| 2026-05-08 05:28 | 48.53163 | 135.19029 | 360 ft | 166 kts | 40° |
| 2026-05-08 05:28 | 48.54071 | 135.20201 | 810 ft | 182 kts | 40° |
| 2026-05-08 05:28 | 48.55079 | 135.21597 | 1174 ft | 205 kts | 41° |
| 2026-05-08 05:28 | 48.56128 | 135.23059 | 1852 ft | 209 kts | 40° |
| 2026-05-08 05:29 | 48.56865 | 135.24090 | 2050 ft | 228 kts | 40° |
| 2026-05-08 05:29 | 48.58091 | 135.25804 | 2511 ft | 248 kts | 41° |
| 2026-05-08 05:29 | 48.59370 | 135.27597 | 3331 ft | 252 kts | 40° |
| 2026-05-08 05:29 | 48.60658 | 135.29399 | 4187 ft | 254 kts | 40° |
| 2026-05-08 05:30 | 48.61971 | 135.31235 | 4999 ft | 259 kts | 41° |
| 2026-05-08 05:30 | 48.63298 | 135.33094 | 5888 ft | 260 kts | 41° |
| 2026-05-08 05:30 | 48.64640 | 135.34976 | 6636 ft | 266 kts | 41° |
| 2026-05-08 05:30 | 48.66010 | 135.36894 | 7374 ft | 270 kts | 41° |
| 2026-05-08 05:31 | 48.67394 | 135.38830 | 8176 ft | 271 kts | 41° |
| 2026-05-08 05:31 | 48.68784 | 135.40781 | 8963 ft | 274 kts | 41° |
| 2026-05-08 05:31 | 48.70200 | 135.42767 | 9652 ft | 281 kts | 41° |
| 2026-05-08 05:31 | 48.71647 | 135.44798 | 10225 ft | 291 kts | 41° |
| 2026-05-08 05:32 | 48.73195 | 135.46965 | 10400 ft | 315 kts | 41° |
| 2026-05-08 05:32 | 48.74850 | 135.49299 | 10598 ft | 335 kts | 41° |
| 2026-05-08 05:32 | 48.76582 | 135.51750 | 11059 ft | 345 kts | 43° |
| 2026-05-08 05:32 | 48.78285 | 135.54337 | 11761 ft | 348 kts | 44° |
| 2026-05-08 05:33 | 48.79975 | 135.57001 | 12432 ft | 353 kts | 45° |
| 2026-05-08 05:33 | 48.81681 | 135.59711 | 13085 ft | 358 kts | 45° |
| 2026-05-08 05:33 | 48.83409 | 135.62451 | 13760 ft | 361 kts | 45° |
| 2026-05-08 05:33 | 48.85160 | 135.65215 | 14367 ft | 365 kts | 45° |
| 2026-05-08 05:34 | 48.86930 | 135.68004 | 14959 ft | 369 kts | 44° |
| 2026-05-08 05:34 | 48.88694 | 135.70779 | 15569 ft | 372 kts | 45° |
| 2026-05-08 05:34 | 48.90494 | 135.73613 | 16171 ft | 375 kts | 44° |
| 2026-05-08 05:34 | 48.92319 | 135.76488 | 16759 ft | 379 kts | 45° |
| 2026-05-08 05:35 | 48.94158 | 135.79386 | 17345 ft | 382 kts | 45° |
| 2026-05-08 05:35 | 48.96012 | 135.82311 | 17933 ft | 386 kts | 45° |
| 2026-05-08 05:35 | 48.97885 | 135.85268 | 18444 ft | 390 kts | 45° |
| 2026-05-08 05:35 | 48.99791 | 135.88224 | 18975 ft | 392 kts | 44° |
| 2026-05-08 05:36 | 49.01726 | 135.91167 | 19512 ft | 395 kts | 43° |
| 2026-05-08 05:36 | 49.03682 | 135.94120 | 20082 ft | 397 kts | 44° |
| 2026-05-08 05:36 | 49.05645 | 135.97088 | 20654 ft | 398 kts | 44° |
| 2026-05-08 05:36 | 49.07617 | 136.00081 | 21171 ft | 401 kts | 44° |
| 2026-05-08 05:37 | 49.09601 | 136.03097 | 21674 ft | 404 kts | 44° |
| 2026-05-08 05:37 | 49.11600 | 136.06146 | 22175 ft | 407 kts | 44° |
| 2026-05-08 05:37 | 49.13608 | 136.09217 | 22699 ft | 410 kts | 44° |
| 2026-05-08 05:37 | 49.15629 | 136.12312 | 23210 ft | 412 kts | 44° |
| 2026-05-08 05:38 | 49.17660 | 136.15428 | 23661 ft | 415 kts | 44° |
| 2026-05-08 05:38 | 49.19702 | 136.18563 | 24063 ft | 417 kts | 44° |
| 2026-05-08 05:38 | 49.21756 | 136.21719 | 24430 ft | 421 kts | 44° |
| 2026-05-08 05:38 | 49.23827 | 136.24907 | 24804 ft | 424 kts | 44° |
| 2026-05-08 05:39 | 49.25910 | 136.28119 | 25179 ft | 427 kts | 45° |
| 2026-05-08 05:39 | 49.28003 | 136.31351 | 25547 ft | 429 kts | 44° |
| 2026-05-08 05:39 | 49.30116 | 136.34615 | 25921 ft | 432 kts | 45° |
| 2026-05-08 05:39 | 49.32234 | 136.37893 | 26287 ft | 435 kts | 44° |
| 2026-05-08 05:40 | 49.34370 | 136.41202 | 26647 ft | 437 kts | 45° |
| 2026-05-08 05:40 | 49.36516 | 136.44531 | 27009 ft | 440 kts | 45° |
| 2026-05-08 05:40 | 49.38643 | 136.47834 | 27362 ft | 443 kts | 45° |
| 2026-05-08 05:40 | 49.40813 | 136.51207 | 27714 ft | 445 kts | 45° |
| 2026-05-08 05:41 | 49.42996 | 136.54605 | 28056 ft | 447 kts | 45° |
| 2026-05-08 05:41 | 49.45299 | 136.57832 | 28361 ft | 450 kts | 36° |
| 2026-05-08 05:41 | 49.47876 | 136.60586 | 28683 ft | 452 kts | 33° |
| 2026-05-08 05:41 | 49.50513 | 136.63238 | 29016 ft | 455 kts | 32° |
| 2026-05-08 05:42 | 49.53182 | 136.65891 | 29293 ft | 458 kts | 32° |
| 2026-05-08 05:42 | 49.55861 | 136.68564 | 29591 ft | 460 kts | 32° |
| 2026-05-08 05:42 | 49.58534 | 136.71255 | 30185 ft | 453 kts | 33° |
| 2026-05-08 05:42 | 49.61118 | 136.73881 | 31116 ft | 439 kts | 33° |
| 2026-05-08 05:43 | 49.63667 | 136.76489 | 31354 ft | 443 kts | 33° |
| 2026-05-08 05:43 | 49.68886 | 136.81850 | 31462 ft | 457 kts | 33° |
| 2026-05-08 05:43 | 49.71540 | 136.84585 | 31622 ft | 460 kts | 33° |
| 2026-05-08 05:44 | 49.74201 | 136.87333 | 31949 ft | 460 kts | 33° |
| 2026-05-08 05:44 | 49.76864 | 136.90089 | 32264 ft | 460 kts | 33° |
| 2026-05-08 05:44 | 49.79521 | 136.92840 | 32515 ft | 461 kts | 33° |
| 2026-05-08 05:44 | 49.82193 | 136.95609 | 32726 ft | 463 kts | 33° |
| 2026-05-08 05:45 | 49.84874 | 136.98391 | 32981 ft | 464 kts | 33° |
| 2026-05-08 05:45 | 49.87523 | 137.01143 | 33243 ft | 464 kts | 33° |
| 2026-05-08 05:45 | 49.90206 | 137.03935 | 33474 ft | 466 kts | 33° |
| 2026-05-08 05:45 | 49.92906 | 137.06747 | 33689 ft | 468 kts | 32° |
| 2026-05-08 05:46 | 49.95610 | 137.09569 | 33904 ft | 469 kts | 32° |
| 2026-05-08 05:46 | 49.98317 | 137.12397 | 34111 ft | 469 kts | 32° |
| 2026-05-08 05:46 | 50.01021 | 137.15227 | 34309 ft | 469 kts | 32° |
| 2026-05-08 05:46 | 50.03732 | 137.18067 | 34510 ft | 470 kts | 32° |
| 2026-05-08 05:47 | 50.06449 | 137.20916 | 34715 ft | 470 kts | 32° |
| 2026-05-08 05:47 | 50.09163 | 137.23770 | 34819 ft | 472 kts | 33° |
| 2026-05-08 05:47 | 50.11886 | 137.26652 | 34809 ft | 474 kts | 33° |
| 2026-05-08 05:48 | 50.17309 | 137.32435 | 34825 ft | 470 kts | 33° |
| 2026-05-08 05:48 | 50.22665 | 137.38177 | 34816 ft | 465 kts | 33° |
| 2026-05-08 05:49 | 50.27975 | 137.43872 | 34816 ft | 461 kts | 33° |
| 2026-05-08 05:49 | 50.33264 | 137.49559 | 34839 ft | 464 kts | 33° |
| 2026-05-08 05:50 | 50.38620 | 137.55333 | 34836 ft | 470 kts | 33° |
| 2026-05-08 05:50 | 50.43869 | 137.61461 | 34828 ft | 471 kts | 37° |
| 2026-05-08 05:51 | 50.49032 | 137.67821 | 34822 ft | 472 kts | 37° |
| 2026-05-08 05:51 | 50.54204 | 137.74160 | 34829 ft | 472 kts | 36° |
| 2026-05-08 05:52 | 50.59393 | 137.80473 | 34821 ft | 472 kts | 36° |
| 2026-05-08 05:52 | 50.64579 | 137.86779 | 34820 ft | 470 kts | 36° |
| 2026-05-08 05:53 | 50.69746 | 137.93084 | 34825 ft | 469 kts | 36° |
| 2026-05-08 05:53 | 50.74894 | 137.99391 | 34827 ft | 468 kts | 36° |
| 2026-05-08 05:54 | 50.80038 | 138.05708 | 34829 ft | 468 kts | 37° |
| 2026-05-08 05:54 | 50.85166 | 138.12027 | 34823 ft | 467 kts | 37° |
| 2026-05-08 05:55 | 50.90284 | 138.18343 | 34816 ft | 466 kts | 37° |
| 2026-05-08 05:55 | 50.95523 | 138.24335 | 34820 ft | 463 kts | 32° |
| 2026-05-08 05:56 | 51.00951 | 138.29833 | 34822 ft | 462 kts | 31° |
| 2026-05-08 05:56 | 51.06349 | 138.35274 | 34823 ft | 463 kts | 31° |
| 2026-05-08 05:57 | 51.11752 | 138.40825 | 34819 ft | 462 kts | 31° |
| 2026-05-08 05:57 | 51.17130 | 138.46413 | 34821 ft | 461 kts | 32° |
| 2026-05-08 05:58 | 51.22504 | 138.52022 | 34824 ft | 462 kts | 32° |
| 2026-05-08 05:58 | 51.27879 | 138.57652 | 34830 ft | 463 kts | 32° |
| 2026-05-08 05:59 | 51.33266 | 138.63311 | 34827 ft | 464 kts | 32° |
| 2026-05-08 05:59 | 51.38661 | 138.68985 | 34839 ft | 464 kts | 32° |
| 2026-05-08 06:00 | 51.44064 | 138.74685 | 34836 ft | 465 kts | 32° |
| 2026-05-08 06:00 | 51.49469 | 138.80407 | 34825 ft | 465 kts | 32° |
| 2026-05-08 06:01 | 51.54864 | 138.86137 | 34825 ft | 465 kts | 32° |
| 2026-05-08 06:01 | 51.60249 | 138.91872 | 34824 ft | 464 kts | 32° |
| 2026-05-08 06:02 | 51.65620 | 138.97606 | 34828 ft | 463 kts | 32° |
| 2026-05-08 06:02 | 51.70985 | 139.03352 | 34823 ft | 462 kts | 32° |
| 2026-05-08 06:03 | 51.76334 | 139.09094 | 34825 ft | 462 kts | 32° |
| 2026-05-08 06:03 | 51.81679 | 139.14851 | 34825 ft | 461 kts | 32° |
| 2026-05-08 06:04 | 51.87010 | 139.20613 | 34822 ft | 460 kts | 32° |
| 2026-05-08 06:04 | 51.92336 | 139.26385 | 34828 ft | 461 kts | 32° |
| 2026-05-08 06:05 | 51.97659 | 139.32169 | 34825 ft | 461 kts | 32° |
| 2026-05-08 06:05 | 52.02996 | 139.37985 | 34829 ft | 463 kts | 32° |
| 2026-05-08 06:06 | 52.08344 | 139.43830 | 34835 ft | 463 kts | 32° |
| 2026-05-08 06:06 | 52.13696 | 139.49696 | 34824 ft | 464 kts | 32° |
| 2026-05-08 06:07 | 52.19050 | 139.55582 | 34821 ft | 465 kts | 32° |
| 2026-05-08 06:07 | 52.24373 | 139.61451 | 34823 ft | 465 kts | 32° |
| 2026-05-08 06:08 | 52.29763 | 139.67405 | 34816 ft | 465 kts | 32° |
| 2026-05-08 06:08 | 52.35115 | 139.73348 | 34819 ft | 465 kts | 32° |
| 2026-05-08 06:09 | 52.40468 | 139.79306 | 34820 ft | 466 kts | 32° |
| 2026-05-08 06:09 | 52.45787 | 139.85241 | 34816 ft | 465 kts | 32° |
| 2026-05-08 06:10 | 52.51168 | 139.91263 | 34813 ft | 465 kts | 32° |
| 2026-05-08 06:10 | 52.56466 | 139.97213 | 34825 ft | 464 kts | 32° |
| 2026-05-08 06:11 | 52.61790 | 140.03206 | 34816 ft | 463 kts | 32° |
| 2026-05-08 06:11 | 52.67050 | 140.09326 | 34813 ft | 462 kts | 34° |
| 2026-05-08 06:12 | 52.72197 | 140.15649 | 34817 ft | 461 kts | 35° |
| 2026-05-08 06:12 | 52.77332 | 140.21979 | 34816 ft | 460 kts | 35° |
| 2026-05-08 06:13 | 52.82465 | 140.28281 | 34821 ft | 460 kts | 35° |
| 2026-05-08 06:13 | 52.87603 | 140.34587 | 34820 ft | 460 kts | 34° |
| 2026-05-08 06:14 | 52.92741 | 140.40911 | 34808 ft | 460 kts | 35° |
| 2026-05-08 06:14 | 52.97011 | 140.46185 | 34821 ft | 461 kts | 35° |
| 2026-05-08 06:15 | 53.02191 | 140.52600 | 34815 ft | 462 kts | 35° |
| 2026-05-08 06:15 | 53.07303 | 140.58950 | 34813 ft | 462 kts | 35° |
| 2026-05-08 06:16 | 53.13327 | 140.66456 | 34813 ft | 463 kts | 35° |
| 2026-05-08 06:16 | 53.17739 | 140.71615 | 34810 ft | 462 kts | 31° |
| 2026-05-08 06:17 | 53.25970 | 140.79953 | 34809 ft | 461 kts | 29° |
| 2026-05-08 06:17 | 53.31415 | 140.85480 | 34816 ft | 461 kts | 30° |
| 2026-05-08 06:18 | 53.36873 | 140.91106 | 34811 ft | 460 kts | 30° |
| 2026-05-08 06:18 | 53.42308 | 140.96748 | 34807 ft | 459 kts | 30° |
| 2026-05-08 06:19 | 53.47734 | 141.02399 | 34819 ft | 459 kts | 30° |
| 2026-05-08 06:19 | 53.53149 | 141.08052 | 34816 ft | 458 kts | 30° |
| 2026-05-08 06:20 | 53.58552 | 141.13709 | 34815 ft | 458 kts | 30° |
| 2026-05-08 06:20 | 53.63919 | 141.19346 | 34817 ft | 457 kts | 30° |
| 2026-05-08 06:21 | 53.69309 | 141.25026 | 34828 ft | 457 kts | 30° |
| 2026-05-08 06:21 | 53.74703 | 141.30730 | 34823 ft | 457 kts | 30° |
| 2026-05-08 06:22 | 53.80089 | 141.36448 | 34819 ft | 457 kts | 30° |
| 2026-05-08 06:22 | 53.85467 | 141.42173 | 34824 ft | 457 kts | 30° |
| 2026-05-08 06:23 | 53.90841 | 141.47912 | 34820 ft | 457 kts | 30° |
| 2026-05-08 06:23 | 53.96213 | 141.53665 | 34828 ft | 457 kts | 30° |
| 2026-05-08 06:24 | 54.01590 | 141.59440 | 34823 ft | 458 kts | 30° |
| 2026-05-08 06:24 | 54.06968 | 141.65236 | 34824 ft | 458 kts | 30° |
| 2026-05-08 06:25 | 54.12317 | 141.71020 | 34824 ft | 458 kts | 30° |
| 2026-05-08 06:25 | 54.17695 | 141.76853 | 34822 ft | 458 kts | 31° |
| 2026-05-08 06:26 | 54.23081 | 141.82714 | 34836 ft | 459 kts | 31° |
| 2026-05-08 06:26 | 54.28455 | 141.88580 | 34821 ft | 459 kts | 31° |
| 2026-05-08 06:27 | 54.33828 | 141.94461 | 34816 ft | 458 kts | 31° |
| 2026-05-08 06:27 | 54.39190 | 142.00349 | 34819 ft | 457 kts | 31° |
| 2026-05-08 06:28 | 54.44539 | 142.06248 | 34824 ft | 457 kts | 31° |
| 2026-05-08 06:28 | 54.49853 | 142.12118 | 34821 ft | 456 kts | 31° |
| 2026-05-08 06:29 | 54.55193 | 142.18033 | 34820 ft | 456 kts | 31° |
| 2026-05-08 06:29 | 54.60518 | 142.23961 | 34817 ft | 456 kts | 31° |
| 2026-05-08 06:30 | 54.65842 | 142.29900 | 34824 ft | 456 kts | 31° |